Time;durP1;ratioP1;P1;durP2;ratioP2;P2;SDS_P1;SDS_P2;PMS_P1;PMS_P2;Temp;Humidity;BMP_temperature;BMP_pressure;BME280_temperature;BME280_humidity;BME280_pressure;Samples;Min_cycle;Max_cycle;Signal;HPM_P1;HPM_P2
2022/09/25 00:00:13;;;;;;;36.83;8.73;;;;;;;16.69;67.08;100963.44;4792373;29;121498;-75
2022/09/25 00:02:38;;;;;;;29.95;8.55;;;;;;;16.71;66.99;100972.78;4790845;29;120278;-76
2022/09/25 00:05:07;;;;;;;57.20;9.73;;;;;;;16.70;66.85;100962.19;4795895;29;120400;-76
2022/09/25 00:07:33;;;;;;;52.38;11.00;;;;;;;16.67;66.79;100968.72;4802087;29;120664;-76
2022/09/25 00:09:59;;;;;;;86.93;12.13;;;;;;;16.61;66.58;100960.31;4781991;29;119972;-76
2022/09/25 00:12:25;;;;;;;58.30;10.32;;;;;;;16.68;66.72;100978.53;4787805;29;120186;-75
2022/09/25 00:14:51;;;;;;;76.47;11.57;;;;;;;16.66;66.62;100973.50;4792718;29;120091;-75
2022/09/25 00:17:17;;;;;;;55.20;9.90;;;;;;;16.60;66.46;100967.09;4786405;29;120199;-75
2022/09/25 00:19:48;;;;;;;54.70;11.18;;;;;;;16.59;66.66;100971.13;4788217;29;119559;-75
2022/09/25 00:22:20;;;;;;;64.28;10.65;;;;;;;16.52;67.04;100965.97;4787927;29;121994;-75
2022/09/25 00:24:46;;;;;;;48.08;9.05;;;;;;;16.56;66.98;100972.84;4792087;29;119859;-75
2022/09/25 00:27:12;;;;;;;63.93;10.07;;;;;;;16.46;66.49;100954.84;4778180;29;121407;-76
2022/09/25 00:29:39;;;;;;;29.27;8.00;;;;;;;16.51;67.02;100964.44;4771697;29;120115;-76
2022/09/25 00:32:07;;;;;;;56.47;10.10;;;;;;;16.51;67.32;100970.75;4783137;29;120067;-75
2022/09/25 00:34:33;;;;;;;55.03;10.38;;;;;;;16.50;67.04;100966.47;4794363;29;120316;-76
2022/09/25 00:36:58;;;;;;;49.33;9.63;;;;;;;16.52;67.38;100963.97;4787814;29;119432;-76
2022/09/25 00:39:25;;;;;;;38.00;9.07;;;;;;;16.53;66.58;100973.78;4784754;29;119814;-74
2022/09/25 00:41:51;;;;;;;59.03;9.83;;;;;;;16.55;67.39;100970.53;4791995;29;120291;-75
2022/09/25 00:44:57;;;;;;;30.90;9.10;;;;;;;16.56;67.15;100970.06;4784865;29;119608;-75
2022/09/25 00:47:29;;;;;;;68.80;10.40;;;;;;;16.55;67.44;100976.84;4794515;29;120088;-75
2022/09/25 00:49:58;;;;;;;54.80;10.18;;;;;;;16.53;67.36;100976.56;4787068;29;120382;-75
2022/09/25 00:52:25;;;;;;;49.50;10.30;;;;;;;16.55;67.53;100976.84;4790777;29;119770;-75
2022/09/25 00:54:58;;;;;;;18.20;7.70;;;;;;;16.50;66.79;100962.94;4782869;29;120277;-76
2022/09/25 00:57:28;;;;;;;28.50;8.10;;;;;;;16.52;66.70;100977.03;4788775;29;120049;-76
2022/09/25 01:00:03;;;;;;;35.97;8.80;;;;;;;16.53;66.70;100970.25;4777673;29;119871;-76
2022/09/25 01:02:52;;;;;;;29.35;8.25;;;;;;;16.51;66.85;100964.44;4794956;29;119583;-74
2022/09/25 01:05:23;;;;;;;31.98;8.48;;;;;;;16.52;66.65;100966.72;4796360;29;119784;-75
2022/09/25 01:07:51;;;;;;;39.27;8.57;;;;;;;16.42;66.75;100942.44;4784114;29;119536;-75
2022/09/25 01:10:19;;;;;;;49.17;10.13;;;;;;;16.53;67.11;100962.72;4789632;29;119949;-75
2022/09/25 01:12:53;;;;;;;47.00;9.43;;;;;;;16.54;67.43;100964.22;4789538;29;119938;-75
2022/09/25 01:15:22;;;;;;;55.60;10.80;;;;;;;16.53;67.56;100956.41;4789969;29;120351;-75
2022/09/25 01:18:00;;;;;;;59.15;10.88;;;;;;;16.60;67.22;100969.88;4789578;29;119855;-75
2022/09/25 01:20:35;;;;;;;32.42;8.80;;;;;;;16.58;67.11;100969.59;4791341;29;120030;-76
2022/09/25 01:23:38;;;;;;;44.53;9.57;;;;;;;16.57;67.08;100968.06;4793745;29;120074;-75
2022/09/25 01:26:22;;;;;;;29.75;8.57;;;;;;;16.52;67.06;100965.97;4789897;29;119499;-76
2022/09/25 01:28:57;;;;;;;52.75;10.52;;;;;;;16.55;67.48;100963.00;4776923;29;119933;-75
2022/09/25 01:31:31;;;;;;;65.55;11.27;;;;;;;16.58;67.39;100967.59;4784904;29;120141;-75
2022/09/25 01:34:04;;;;;;;34.10;9.38;;;;;;;16.60;67.13;100969.09;4797354;29;119416;-75
2022/09/25 01:36:37;;;;;;;38.70;9.75;;;;;;;16.54;67.14;100955.16;4806387;29;119581;-76
2022/09/25 01:39:19;;;;;;;29.92;8.65;;;;;;;16.55;67.10;100960.22;4785667;29;120307;-75
2022/09/25 01:42:05;;;;;;;30.48;8.95;;;;;;;16.58;66.50;100967.59;4785757;29;119477;-76
2022/09/25 01:44:38;;;;;;;31.23;10.63;;;;;;;16.58;67.11;100958.50;4782060;29;120014;-76
2022/09/25 01:47:13;;;;;;;32.05;9.82;;;;;;;16.60;67.42;100964.31;4786247;29;120327;-76
2022/09/25 01:49:52;;;;;;;51.25;11.60;;;;;;;16.63;67.41;100970.91;4779548;29;119745;-76
2022/09/25 01:52:26;;;;;;;60.70;11.18;;;;;;;16.63;67.23;100970.91;4780970;29;119871;-76
2022/09/25 01:55:01;;;;;;;57.95;11.63;;;;;;;16.62;67.57;100963.84;4770133;29;120050;-76
2022/09/25 01:57:37;;;;;;;52.22;12.55;;;;;;;16.65;67.71;100973.94;4782070;29;119839;-76
2022/09/25 02:00:17;;;;;;;43.20;10.70;;;;;;;16.63;67.40;100962.59;4791419;29;120260;-75
2022/09/25 02:02:55;;;;;;;36.63;11.23;;;;;;;16.71;67.37;100969.25;4788431;29;120208;-75
2022/09/25 02:05:26;;;;;;;58.92;12.57;;;;;;;16.70;67.39;100964.97;4775418;29;120799;-75
2022/09/25 02:08:09;;;;;;;48.63;12.27;;;;;;;16.72;67.06;100968.00;4756723;29;119854;-74
2022/09/25 02:10:43;;;;;;;38.70;11.38;;;;;;;16.70;67.04;100957.41;4780851;29;121153;-76
2022/09/25 02:13:14;;;;;;;78.47;13.90;;;;;;;16.72;67.03;100966.00;4790949;29;119587;-76
2022/09/25 02:15:45;;;;;;;52.92;12.82;;;;;;;16.64;66.86;100951.03;4769645;29;119921;-75
2022/09/25 02:21:20;;;;;;;49.35;12.60;;;;;;;16.60;67.21;100944.19;4788912;29;119884;-76
2022/09/25 02:24:01;;;;;;;62.08;14.15;;;;;;;16.71;67.28;100955.41;4780311;29;119672;-75
2022/09/25 02:26:33;;;;;;;49.75;12.70;;;;;;;16.71;67.06;100960.94;4792148;29;120624;-75
2022/09/25 02:29:01;;;;;;;67.43;13.43;;;;;;;16.69;67.34;100952.38;4773189;29;119990;-75
2022/09/25 02:31:39;;;;;;;60.72;13.18;;;;;;;16.64;67.32;100951.03;4776795;29;119804;-76
2022/09/25 02:34:05;;;;;;;44.28;12.23;;;;;;;16.70;67.44;100954.66;4785019;29;120260;-75
2022/09/25 02:36:34;;;;;;;60.10;14.05;;;;;;;16.66;67.44;100959.63;4783736;29;119712;-75
2022/09/25 02:39:02;;;;;;;60.25;13.68;;;;;;;16.73;67.03;100961.22;4779917;29;119481;-76
2022/09/25 02:41:28;;;;;;;33.20;11.90;;;;;;;16.72;67.18;100952.16;4788113;29;120245;-76
2022/09/25 02:44:12;;;;;;;52.60;14.07;;;;;;;16.71;66.92;100944.31;4787508;29;120079;-75
2022/09/25 02:47:13;;;;;;;49.03;13.95;;;;;;;16.62;67.04;100939.69;4797029;29;120369;-74
2022/09/25 02:49:53;;;;;;;56.30;13.60;;;;;;;16.61;66.77;100938.16;4805081;29;120373;-76
2022/09/25 02:52:52;;;;;;;48.42;14.00;;;;;;;16.58;67.27;100944.66;4785159;29;119886;-75
2022/09/25 02:55:33;;;;;;;65.30;15.15;;;;;;;16.57;67.15;100946.69;4779444;29;120908;-75
2022/09/25 02:58:24;;;;;;;61.05;15.13;;;;;;;16.57;67.50;100945.91;4786051;29;120362;-75
2022/09/25 03:00:54;;;;;;;92.72;16.75;;;;;;;16.50;67.82;100947.06;4771049;29;120821;-76
2022/09/25 03:03:22;;;;;;;69.70;16.92;;;;;;;16.49;67.72;100944.78;4787258;29;119559;-75
2022/09/25 03:05:55;;;;;;;64.88;15.73;;;;;;;16.55;67.46;100951.16;4794134;29;120034;-76
2022/09/25 03:08:37;;;;;;;58.10;16.88;;;;;;;16.52;67.70;100941.81;4789849;29;119915;-76
2022/09/25 03:11:04;;;;;;;72.57;17.98;;;;;;;16.61;67.65;100948.47;4789080;29;119515;-74
2022/09/25 03:13:32;;;;;;;71.88;17.60;;;;;;;16.58;67.48;100939.88;4784383;29;120125;-76
2022/09/25 03:16:03;;;;;;;71.53;18.20;;;;;;;16.48;67.36;100915.59;4789081;29;120307;-75
2022/09/25 03:18:30;;;;;;;76.53;18.20;;;;;;;16.63;67.39;100945.97;4774219;29;120155;-75
2022/09/25 03:20:56;;;;;;;64.97;18.00;;;;;;;16.64;67.28;100939.19;4787816;29;119696;-75
2022/09/25 03:23:23;;;;;;;79.83;19.70;;;;;;;16.57;67.29;100929.31;4792049;29;119838;-75
2022/09/25 03:25:49;;;;;;;58.50;17.30;;;;;;;16.52;67.70;100930.72;4790667;29;120567;-75
2022/09/25 03:28:15;;;;;;;39.17;17.23;;;;;;;16.62;67.59;100947.22;4794078;29;119552;-75
2022/09/25 03:30:40;;;;;;;53.00;19.27;;;;;;;16.55;67.73;100924.22;4776834;29;120286;-76
2022/09/25 03:33:09;;;;;;;62.47;19.50;;;;;;;16.60;67.69;100939.41;4796514;29;120178;-75
2022/09/25 03:35:35;;;;;;;63.75;19.88;;;;;;;16.64;67.60;100933.66;4805470;29;119758;-75
2022/09/25 03:38:02;;;;;;;35.73;17.57;;;;;;;16.60;67.03;100924.78;4791240;29;119992;-76
2022/09/25 03:40:28;;;;;;;65.60;19.85;;;;;;;16.48;67.45;100919.13;4795116;29;120283;-74
2022/09/25 03:42:53;;;;;;;70.13;19.35;;;;;;;16.55;67.55;100927.00;4792070;29;119578;-76
2022/09/25 03:45:19;;;;;;;52.20;18.53;;;;;;;16.57;67.79;100923.75;4788213;29;119665;-76
2022/09/25 03:47:45;;;;;;;75.70;20.75;;;;;;;16.61;67.67;100932.63;4796458;29;120019;-75
2022/09/25 03:50:15;;;;;;;52.35;18.88;;;;;;;16.50;67.36;100913.09;4803556;29;121253;-75
2022/09/25 03:52:43;;;;;;;65.60;20.03;;;;;;;16.61;67.45;100929.84;4795389;29;119924;-76
2022/09/25 03:55:10;;;;;;;74.83;21.57;;;;;;;16.61;67.64;100926.31;4793340;29;119852;-75
2022/09/25 03:57:37;;;;;;;78.50;21.10;;;;;;;16.56;67.51;100923.00;4789523;29;119948;-74
2022/09/25 04:00:26;;;;;;;71.60;21.80;;;;;;;16.62;67.05;100927.84;4780255;29;119665;-75
2022/09/25 04:03:21;;;;;;;71.03;21.52;;;;;;;16.53;67.29;100912.88;4788518;29;119787;-75
2022/09/25 04:05:50;;;;;;;75.22;21.45;;;;;;;16.59;66.87;100926.81;4791144;29;119926;-75
2022/09/25 04:08:16;;;;;;;58.97;19.83;;;;;;;16.57;67.76;100918.22;4786887;29;119955;-76
2022/09/25 04:10:41;;;;;;;90.23;22.67;;;;;;;16.55;67.31;100923.47;4784369;29;119847;-75
2022/09/25 04:13:11;;;;;;;75.30;21.00;;;;;;;16.47;66.77;100914.81;4798738;29;120416;-75
2022/09/25 04:15:41;;;;;;;71.30;21.03;;;;;;;16.43;67.31;100908.72;4783873;29;121993;-75
2022/09/25 04:18:10;;;;;;;54.50;20.58;;;;;;;16.43;67.31;100919.06;4782932;29;119720;-76
2022/09/25 04:20:37;;;;;;;74.50;23.47;;;;;;;16.43;67.08;100919.06;4784964;29;119382;-74
2022/09/25 04:23:03;;;;;;;52.88;22.77;;;;;;;16.41;67.22;100910.47;4791187;29;120326;-75
2022/09/25 04:25:29;;;;;;;63.63;21.80;;;;;;;16.35;67.08;100907.66;4785144;29;119684;-76
2022/09/25 04:27:55;;;;;;;81.97;23.30;;;;;;;16.25;67.47;100897.94;4774576;29;119993;-75
2022/09/25 04:30:22;;;;;;;79.77;24.47;;;;;;;16.29;67.71;100909.56;4793349;29;121416;-75
2022/09/25 04:35:32;;;;;;;83.32;25.85;;;;;;;16.32;67.78;100916.88;4775763;29;120035;-74
2022/09/25 04:38:03;;;;;;;48.42;22.92;;;;;;;16.30;67.42;100913.09;4774008;29;120051;-74
2022/09/25 04:40:30;;;;;;;59.88;24.42;;;;;;;16.30;67.71;100916.63;4783945;29;119361;-74
2022/09/25 04:43:00;;;;;;;60.92;25.63;;;;;;;16.25;67.46;100909.78;4781974;29;120053;-73
2022/09/25 04:45:32;;;;;;;81.03;27.75;;;;;;;16.27;68.05;100917.59;4789902;29;120027;-74
2022/09/25 04:48:00;;;;;;;83.00;28.73;;;;;;;16.27;68.05;100915.59;4792450;29;119920;-74
2022/09/25 04:50:27;;;;;;;79.23;27.77;;;;;;;16.28;67.97;100917.09;4788843;29;119844;-73
2022/09/25 04:53:21;;;;;;;57.33;26.77;;;;;;;16.24;67.51;100910.25;4772589;29;119754;-74
2022/09/25 04:56:04;;;;;;;70.10;28.73;;;;;;;16.27;67.68;100914.81;4794326;29;119832;-74
2022/09/25 04:58:30;;;;;;;93.00;30.77;;;;;;;16.27;68.03;100923.88;4784890;29;119583;-73
2022/09/25 05:01:01;;;;;;;68.97;29.05;;;;;;;16.26;67.66;100916.06;4772584;29;120104;-74
2022/09/25 05:03:28;;;;;;;57.90;28.53;;;;;;;16.18;67.78;100912.97;4778479;29;119747;-72
2022/09/25 05:05:54;;;;;;;85.03;29.65;;;;;;;16.21;67.64;100917.53;4789215;29;119394;-73
2022/09/25 05:08:38;;;;;;;82.55;32.28;;;;;;;16.20;68.18;100918.78;4788643;29;119717;-74
2022/09/25 05:11:04;;;;;;;70.70;29.20;;;;;;;16.08;67.95;100899.72;4762376;29;119680;-73
2022/09/25 05:14:02;;;;;;;62.33;28.35;;;;;;;16.15;67.24;100918.69;4793589;29;119609;-72
2022/09/25 05:16:29;;;;;;;78.00;29.80;;;;;;;16.17;67.42;100913.44;4793421;29;120885;-73
2022/09/25 05:18:55;;;;;;;53.47;29.13;;;;;;;16.12;67.46;100906.59;4790452;29;122050;-73
2022/09/25 05:21:21;;;;;;;64.40;30.98;;;;;;;16.10;67.25;100908.31;4783857;29;120133;-74
2022/09/25 05:23:47;;;;;;;47.42;28.85;;;;;;;16.00;67.01;100907.69;4795403;29;120975;-72
2022/09/25 05:26:13;;;;;;;61.23;31.13;;;;;;;15.94;67.47;100920.69;4755867;29;119795;-72
2022/09/25 05:28:39;;;;;;;67.22;31.75;;;;;;;15.88;68.23;100911.53;4794300;29;120765;-73
2022/09/25 05:31:05;;;;;;;68.78;30.75;;;;;;;15.89;68.31;100916.59;4793363;29;120473;-74
2022/09/25 05:33:32;;;;;;;66.50;31.20;;;;;;;15.87;68.72;100916.31;4774891;29;120240;-74
2022/09/25 05:36:11;;;;;;;39.70;28.17;;;;;;;15.90;67.96;100917.34;4770285;29;119671;-73
2022/09/25 05:38:40;;;;;;;60.35;30.42;;;;;;;15.79;68.62;100901.34;4787168;29;119956;-73
2022/09/25 05:41:08;;;;;;;63.10;29.75;;;;;;;15.93;68.33;100919.91;4785068;29;119911;-74
2022/09/25 05:43:43;;;;;;;84.45;31.77;;;;;;;15.79;68.37;100904.09;4791647;29;120420;-74
2022/09/25 05:46:09;;;;;;;51.65;28.13;;;;;;;15.84;67.21;100914.47;4785899;29;120561;-73
2022/09/25 05:48:36;;;;;;;57.47;29.77;;;;;;;15.86;67.73;100934.16;4795406;29;120384;-74
2022/09/25 05:51:01;;;;;;;54.88;29.70;;;;;;;15.80;67.89;100922.22;4787627;29;119934;-74
2022/09/25 05:53:30;;;;;;;65.68;29.30;;;;;;;15.83;68.14;100929.56;4791521;29;119552;-73
2022/09/25 05:56:01;;;;;;;50.67;27.93;;;;;;;15.83;67.53;100940.63;4781225;29;119675;-73
2022/09/25 05:58:29;;;;;;;55.70;27.45;;;;;;;15.68;67.37;100926.06;4773746;29;122815;-74
2022/09/25 06:00:58;;;;;;;62.20;30.40;;;;;;;15.73;68.05;100930.94;4789245;29;119780;-73
2022/09/25 06:03:28;;;;;;;62.93;29.80;;;;;;;15.73;68.17;100936.47;4799445;29;119616;-74
2022/09/25 06:05:58;;;;;;;48.53;28.77;;;;;;;15.70;67.96;100937.41;4795060;29;119594;-74
2022/09/25 06:08:25;;;;;;;65.50;28.23;;;;;;;15.68;68.01;100933.63;4801194;29;119628;-74
2022/09/25 06:10:55;;;;;;;73.20;30.10;;;;;;;15.69;68.23;100938.66;4795105;29;119905;-73
2022/09/25 06:13:23;;;;;;;84.47;29.08;;;;;;;15.70;68.17;100937.41;4787395;29;119861;-74
2022/09/25 06:15:51;;;;;;;56.53;27.25;;;;;;;15.64;68.24;100939.34;4769197;29;120156;-75
2022/09/25 06:18:20;;;;;;;73.55;29.02;;;;;;;15.65;68.11;100932.56;4787808;29;120126;-74
2022/09/25 06:20:46;;;;;;;49.58;26.42;;;;;;;15.70;68.41;100942.94;4789411;29;120078;-75
2022/09/25 06:23:15;;;;;;;56.72;26.35;;;;;;;15.75;68.22;100939.50;4790865;29;121521;-74
2022/09/25 06:25:43;;;;;;;51.28;24.65;;;;;;;15.76;68.07;100935.50;4794051;29;119550;-74
2022/09/25 06:28:11;;;;;;;64.55;25.48;;;;;;;15.77;68.30;100947.31;4791575;29;119419;-74
2022/09/25 06:30:37;;;;;;;69.83;25.03;;;;;;;15.72;67.84;100931.41;4807696;29;120152;-75
2022/09/25 06:33:12;;;;;;;84.03;26.88;;;;;;;15.74;68.08;100935.22;4791491;29;119571;-74
2022/09/25 06:35:43;;;;;;;82.37;27.60;;;;;;;15.84;68.21;100939.38;4790236;29;120120;-72
2022/09/25 06:38:15;;;;;;;43.83;23.50;;;;;;;15.80;67.81;100936.06;4776414;29;120301;-72
2022/09/25 06:40:42;;;;;;;64.07;25.48;;;;;;;15.87;68.24;100935.69;4795779;29;119684;-72
2022/09/25 06:43:10;;;;;;;47.05;23.35;;;;;;;15.89;68.04;100944.25;4795902;29;119798;-72
2022/09/25 06:45:40;;;;;;;48.35;21.45;;;;;;;15.90;67.41;100951.31;4797550;29;119538;-73
2022/09/25 06:48:09;;;;;;;50.13;20.58;;;;;;;15.88;67.13;100933.69;4789027;29;120627;-73
2022/09/25 06:50:42;;;;;;;80.07;23.60;;;;;;;15.93;68.12;100944.81;4798278;29;119405;-72
2022/09/25 06:53:10;;;;;;;65.00;22.00;;;;;;;15.95;67.70;100947.09;4797316;29;119982;-72
2022/09/25 06:55:58;;;;;;;54.28;20.90;;;;;;;15.95;67.33;100944.31;4756207;29;120193;-72
2022/09/25 06:58:25;;;;;;;54.90;21.27;;;;;;;15.92;66.86;100937.75;4740523;29;120120;-72
2022/09/25 07:00:55;;;;;;;55.90;22.13;;;;;;;15.91;68.13;100943.78;4759415;29;119683;-72
2022/09/25 07:06:09;;;;;;;64.05;22.23;;;;;;;15.95;68.77;100939.56;4753732;29;120168;-72
2022/09/25 07:08:47;;;;;;;60.10;22.38;;;;;;;16.02;68.21;100941.16;4762552;29;119880;-72
2022/09/25 07:11:31;;;;;;;41.65;19.77;;;;;;;16.06;67.63;100938.19;4758981;29;120007;-72
2022/09/25 07:14:02;;;;;;;57.28;20.80;;;;;;;16.07;68.25;100934.16;4758894;29;120085;-72
2022/09/25 07:16:29;;;;;;;54.05;20.27;;;;;;;16.12;67.40;100950.09;4741161;29;120233;-72
2022/09/25 07:18:59;;;;;;;61.85;20.60;;;;;;;16.10;67.83;100947.06;4758509;29;120023;-72
2022/09/25 07:21:28;;;;;;;59.70;22.02;;;;;;;16.14;68.18;100944.84;4759068;29;119635;-73
2022/09/25 07:23:54;;;;;;;55.73;20.37;;;;;;;16.14;67.53;100942.09;4759283;29;120370;-71
2022/09/25 07:26:23;;;;;;;49.15;19.20;;;;;;;16.14;67.25;100939.31;4755979;29;119861;-71
2022/09/25 07:28:57;;;;;;;41.03;20.10;;;;;;;16.13;67.19;100935.78;4756604;29;119744;-72
2022/09/25 07:31:26;;;;;;;52.50;20.40;;;;;;;16.06;67.51;100940.94;4762559;29;122109;-71
2022/09/25 07:33:52;;;;;;;40.28;19.35;;;;;;;16.07;67.20;100950.78;4790259;29;119787;-72
2022/09/25 07:36:19;;;;;;;36.20;18.90;;;;;;;16.00;66.89;100945.66;4797813;29;119690;-72
2022/09/25 07:38:52;;;;;;;51.77;20.60;;;;;;;15.92;67.29;100937.75;4797874;29;119358;-71
2022/09/25 07:41:21;;;;;;;47.15;21.80;;;;;;;15.90;67.76;100937.47;4796700;29;120171;-73
2022/09/25 07:43:51;;;;;;;32.80;18.95;;;;;;;15.91;67.81;100939.00;4798055;29;119401;-72
2022/09/25 07:46:34;;;;;;;42.90;21.38;;;;;;;15.98;68.37;100946.13;4796195;29;120647;-72
2022/09/25 07:49:00;;;;;;;47.37;22.70;;;;;;;16.11;69.46;100954.13;4796472;29;119910;-72
2022/09/25 07:51:26;;;;;;;30.05;18.90;;;;;;;16.19;68.13;100946.94;4790957;29;119567;-71
2022/09/25 07:53:51;;;;;;;36.37;20.23;;;;;;;16.29;68.34;100942.78;4786674;29;119477;-71
2022/09/25 07:56:18;;;;;;;53.53;20.43;;;;;;;16.31;68.20;100945.06;4794780;29;120376;-71
2022/09/25 07:58:44;;;;;;;36.15;19.25;;;;;;;16.40;68.60;100937.41;4762026;29;123368;-71
2022/09/25 08:01:12;;;;;;;54.20;18.57;;;;;;;16.48;67.75;100932.97;4779383;29;119796;-71
2022/09/25 08:03:38;;;;;;;48.90;18.90;;;;;;;16.52;67.55;100927.97;4778020;29;119442;-72
2022/09/25 08:06:08;;;;;;;52.38;19.73;;;;;;;16.64;68.62;100925.34;4778543;29;120869;-71
2022/09/25 08:08:34;;;;;;;27.92;16.67;;;;;;;16.84;67.43;100933.66;4792868;29;119758;-71
2022/09/25 08:11:06;;;;;;;54.28;17.25;;;;;;;17.05;68.41;100935.13;4797551;29;119955;-72
2022/09/25 08:13:33;;;;;;;61.80;15.13;;;;;;;17.23;66.93;100936.78;4797094;29;120075;-72
2022/09/25 08:16:02;;;;;;;42.45;14.55;;;;;;;17.35;67.10;100935.66;4801114;29;119665;-72
2022/09/25 08:18:28;;;;;;;56.00;14.75;;;;;;;17.49;67.18;100934.00;4795901;29;120651;-72
2022/09/25 08:20:59;;;;;;;58.08;13.80;;;;;;;17.67;67.41;100949.50;4796012;29;119668;-72
2022/09/25 08:23:48;;;;;;;27.48;10.88;;;;;;;17.79;65.09;100935.28;4776397;29;119743;-72
2022/09/25 08:26:15;;;;;;;31.90;9.93;;;;;;;17.93;64.83;100938.38;4779420;29;120080;-72
2022/09/25 08:28:41;;;;;;;42.95;9.80;;;;;;;18.04;64.96;100935.69;4793627;29;119451;-72
2022/09/25 08:31:07;;;;;;;35.20;9.63;;;;;;;18.10;65.28;100936.47;4762351;29;121627;-73
2022/09/25 08:33:53;;;;;;;26.73;8.33;;;;;;;18.21;65.09;100944.06;4775658;29;119887;-73
2022/09/25 08:36:24;;;;;;;30.90;8.07;;;;;;;18.29;64.23;100937.56;4787559;29;120571;-73
2022/09/25 08:38:58;;;;;;;29.10;6.70;;;;;;;18.26;61.69;100938.56;4784570;29;119864;-73
2022/09/25 08:41:28;;;;;;;19.90;6.03;;;;;;;18.21;62.97;100919.84;4790743;29;119907;-73
2022/09/25 08:44:19;;;;;;;35.63;6.50;;;;;;;18.30;62.95;100941.88;4811569;29;119892;-73
2022/09/25 08:49:38;;;;;;;30.33;6.63;;;;;;;18.45;61.62;100924.25;4777429;29;119737;-72
2022/09/25 08:52:08;;;;;;;37.30;6.65;;;;;;;18.43;61.78;100935.84;4786965;29;122058;-73
2022/09/25 08:54:34;;;;;;;36.80;6.40;;;;;;;18.34;60.84;100931.28;4796161;29;120515;-73
2022/09/25 08:57:16;;;;;;;22.20;4.93;;;;;;;18.26;61.43;100927.47;4795582;29;120091;-73
2022/09/25 08:59:50;;;;;;;42.50;5.65;;;;;;;18.15;61.62;100924.63;4793524;29;119956;-72
2022/09/25 09:02:38;;;;;;;29.40;5.57;;;;;;;18.14;62.37;100925.88;4797339;29;120131;-73
2022/09/25 09:05:12;;;;;;;35.40;5.70;;;;;;;18.14;63.20;100925.88;4797889;29;119968;-72
2022/09/25 09:07:42;;;;;;;24.90;4.60;;;;;;;18.19;62.38;100927.91;4794566;29;119924;-72
2022/09/25 09:10:34;;;;;;;34.73;4.87;;;;;;;18.24;62.62;100923.69;4796311;29;119716;-72
2022/09/25 09:13:12;;;;;;;21.40;3.90;;;;;;;18.29;61.85;100922.94;4810830;29;120809;-72
2022/09/25 09:15:45;;;;;;;24.87;4.73;;;;;;;18.38;63.44;100931.81;4787015;29;120402;-73
2022/09/25 09:18:26;;;;;;;31.25;6.07;;;;;;;18.50;62.95;100924.28;4793544;29;119973;-73
2022/09/25 09:20:52;;;;;;;41.40;5.30;;;;;;;18.63;62.84;100926.63;4780061;29;120024;-72
2022/09/25 09:23:21;;;;;;;50.63;5.82;;;;;;;18.72;61.77;100918.06;4792236;29;120506;-73
2022/09/25 09:25:49;;;;;;;43.25;5.15;;;;;;;18.82;62.30;100913.78;4794939;29;119776;-72
2022/09/25 09:28:30;;;;;;;52.42;5.88;;;;;;;18.91;60.28;100919.09;4791426;29;121365;-72
2022/09/25 09:31:04;;;;;;;17.80;3.15;;;;;;;18.92;59.76;100917.84;4794955;29;120059;-72
2022/09/25 09:33:47;;;;;;;31.58;3.90;;;;;;;19.01;61.03;100912.06;4795334;29;120044;-72
2022/09/25 09:36:34;;;;;;;45.13;4.40;;;;;;;19.14;59.89;100908.03;4795875;29;120756;-72
2022/09/25 09:39:18;;;;;;;17.73;3.38;;;;;;;19.23;60.00;100905.00;4796398;29;119968;-72
2022/09/25 09:42:03;;;;;;;25.65;3.63;;;;;;;19.40;60.08;100902.19;4794810;29;120260;-72
2022/09/25 09:44:46;;;;;;;26.48;3.88;;;;;;;19.53;57.05;100905.25;4803996;29;120025;-72
2022/09/25 09:47:16;;;;;;;72.20;5.33;;;;;;;19.53;54.82;100906.03;4798062;29;119798;-73
2022/09/25 09:49:49;;;;;;;27.10;2.97;;;;;;;19.43;54.82;100906.78;4778118;29;120238;-72
2022/09/25 09:52:21;;;;;;;23.73;2.97;;;;;;;19.28;54.88;100893.13;4790416;29;119670;-74
2022/09/25 09:54:55;;;;;;;23.30;2.80;;;;;;;19.17;55.74;100901.47;4783824;29;120193;-73
2022/09/25 09:57:25;;;;;;;19.73;3.03;;;;;;;19.21;56.72;100901.97;4777160;29;119903;-72
2022/09/25 10:00:15;;;;;;;54.10;4.20;;;;;;;19.26;56.81;100904.00;4773996;29;119947;-73
2022/09/25 10:02:44;;;;;;;9.40;2.50;;;;;;;19.29;55.00;100897.41;4776525;29;120392;-71
2022/09/25 10:05:16;;;;;;;38.35;3.72;;;;;;;19.31;56.88;100895.66;4775714;29;122290;-72
2022/09/25 10:07:43;;;;;;;17.65;2.88;;;;;;;19.40;57.20;100897.44;4776002;29;119929;-73
2022/09/25 10:10:14;;;;;;;27.85;3.17;;;;;;;19.51;57.79;100891.84;4789913;29;119903;-72
2022/09/25 10:12:45;;;;;;;68.57;4.63;;;;;;;19.62;58.15;100891.84;4794177;29;119845;-72
2022/09/25 10:15:34;;;;;;;35.00;3.80;;;;;;;19.73;57.61;100893.09;4779501;29;119475;-72
2022/09/25 10:18:23;;;;;;;44.78;4.07;;;;;;;19.77;55.21;100893.59;4777709;29;120477;-72
2022/09/25 10:20:58;;;;;;;39.45;3.45;;;;;;;19.78;55.20;100889.56;4793974;29;119674;-72
2022/09/25 10:23:42;;;;;;;17.70;2.43;;;;;;;19.76;53.25;100883.75;4783294;29;119461;-72
2022/09/25 10:26:30;;;;;;;29.70;3.08;;;;;;;19.75;55.51;100887.78;4795343;29;120202;-72
2022/09/25 10:29:01;;;;;;;29.17;2.83;;;;;;;19.77;56.40;100879.69;4789623;29;119520;-73
2022/09/25 10:31:39;;;;;;;23.67;2.80;;;;;;;19.91;56.26;100881.44;4778058;29;119966;-72
2022/09/25 10:34:22;;;;;;;64.10;4.53;;;;;;;20.11;56.64;100874.75;4798585;29;120708;-73
2022/09/25 10:37:19;;;;;;;20.20;2.58;;;;;;;20.26;52.69;100875.22;4784626;29;119894;-72
2022/09/25 10:40:00;;;;;;;39.42;3.20;;;;;;;20.30;52.90;100881.28;4794627;29;120471;-73
2022/09/25 10:42:40;;;;;;;20.17;2.50;;;;;;;20.24;53.54;100869.41;4808681;29;119598;-74
2022/09/25 10:45:28;;;;;;;27.63;2.85;;;;;;;20.11;54.53;100864.41;4795203;29;120377;-73
2022/09/25 10:50:39;;;;;;;29.23;2.65;;;;;;;20.23;53.94;100865.88;4780761;29;120010;-72
2022/09/25 10:53:06;;;;;;;49.35;2.97;;;;;;;20.30;52.94;100861.03;4778470;29;119446;-72
2022/09/25 10:55:40;;;;;;;27.48;2.28;;;;;;;20.49;54.14;100859.19;4793150;29;119838;-72
2022/09/25 10:58:09;;;;;;;31.05;2.75;;;;;;;20.64;52.76;100856.06;4796731;29;119506;-72
2022/09/25 11:00:57;;;;;;;27.30;2.67;;;;;;;20.68;52.70;100851.72;4793012;29;120014;-73
2022/09/25 11:03:38;;;;;;;52.05;3.92;;;;;;;20.71;54.21;100847.16;4790434;29;120103;-73
2022/09/25 11:06:06;;;;;;;25.60;2.87;;;;;;;20.74;52.71;100841.28;4798359;29;119952;-72
2022/09/25 11:08:36;;;;;;;27.35;2.83;;;;;;;20.80;53.43;100836.41;4799661;29;120191;-73
2022/09/25 11:11:03;;;;;;;30.92;3.17;;;;;;;20.94;53.94;100840.13;4794080;29;119878;-72
2022/09/25 11:13:48;;;;;;;8.23;1.60;;;;;;;20.83;52.98;100832.63;4795971;29;120022;-72
2022/09/25 11:16:14;;;;;;;37.60;2.65;;;;;;;20.76;53.01;100841.53;4796015;29;120123;-72
2022/09/25 11:18:50;;;;;;;15.35;2.22;;;;;;;20.70;53.26;100837.28;4781992;29;119414;-73
2022/09/25 11:21:45;;;;;;;31.15;2.53;;;;;;;20.62;52.69;100833.53;4775721;29;120068;-72
2022/09/25 11:24:13;;;;;;;50.70;4.22;;;;;;;20.53;53.69;100829.75;4776877;29;119470;-72
2022/09/25 11:27:13;;;;;;;24.65;2.95;;;;;;;20.46;53.78;100815.63;4779446;29;119786;-72
2022/09/25 11:30:05;;;;;;;30.52;3.15;;;;;;;20.36;54.98;100808.84;4794030;29;119966;-72
2022/09/25 11:33:05;;;;;;;51.00;3.92;;;;;;;20.31;55.03;100804.78;4795881;29;119869;-72
2022/09/25 11:36:03;;;;;;;35.30;3.25;;;;;;;20.37;54.89;100805.53;4791004;29;119519;-72
2022/09/25 11:41:47;;;;;;;35.33;2.45;;;;;;;20.29;51.88;100809.38;4798858;29;119913;-72
2022/09/25 11:44:31;;;;;;;12.43;1.80;;;;;;;20.18;52.35;100815.75;4781504;29;120729;-72
2022/09/25 11:47:24;;;;;;;24.17;2.28;;;;;;;20.05;51.95;100805.19;4748527;29;119624;-72